Time,TemperatureF,DewpointF,PressureIn,WindDirection,WindDirectionDegrees,WindSpeedMPH,WindSpeedGustMPH,Humidity,HourlyPrecipIn,Conditions,Clouds,dailyrainin,SoftwareType,DateUTC
2013-09-02 00:01:00,61.7,60.0,29.90,South,190,6.0,10.0,94,0.00,,,0.00,weatherlink.com 1.10,2013-09-02 07:01:00,
2013-09-02 00:16:00,61.8,60.0,29.90,SW,218,6.0,7.0,94,0.00,,,0.00,weatherlink.com 1.10,2013-09-02 07:16:00,
2013-09-02 00:31:00,62.1,60.0,29.90,South,188,3.0,7.0,94,0.00,,,0.00,weatherlink.com 1.10,2013-09-02 07:31:00,
2013-09-02 00:46:00,62.0,60.0,29.90,SW,216,5.0,9.0,94,0.00,,,0.00,weatherlink.com 1.10,2013-09-02 07:46:00,
2013-09-02 01:01:00,61.7,60.0,29.90,SE,135,6.0,8.0,94,0.00,,,0.00,weatherlink.com 1.10,2013-09-02 08:01:00,
2013-09-02 01:16:00,61.7,60.0,29.90,WSW,245,6.0,8.0,95,0.00,,,0.00,weatherlink.com 1.10,2013-09-02 08:16:00,
2013-09-02 01:31:00,61.5,60.0,29.90,South,173,4.0,8.0,95,0.00,,,0.00,weatherlink.com 1.10,2013-09-02 08:31:00,
2013-09-02 01:47:00,61.3,60.0,29.90,SW,217,6.0,11.0,95,0.00,,,0.00,weatherlink.com 1.10,2013-09-02 08:47:00,
2013-09-02 02:01:00,61.1,60.0,29.89,ESE,123,3.0,9.0,95,0.00,,,0.00,weatherlink.com 1.10,2013-09-02 09:01:00,
2013-09-02 02:16:00,60.9,60.0,29.89,South,170,5.0,10.0,95,0.00,,,0.00,weatherlink.com 1.10,2013-09-02 09:16:00,
2013-09-02 02:31:00,60.8,60.0,29.89,South,173,5.0,9.0,96,0.00,,,0.00,weatherlink.com 1.10,2013-09-02 09:31:00,
2013-09-02 02:46:00,60.7,60.0,29.89,SSE,156,5.0,9.0,96,0.00,,,0.00,weatherlink.com 1.10,2013-09-02 09:46:00,
2013-09-02 03:01:00,60.8,60.0,29.89,SSW,205,4.0,9.0,96,0.00,,,0.00,weatherlink.com 1.10,2013-09-02 10:01:00,
2013-09-02 03:16:00,60.8,60.0,29.89,ESE,120,3.0,8.0,96,0.00,,,0.00,weatherlink.com 1.10,2013-09-02 10:16:00,
2013-09-02 03:31:00,60.7,60.0,29.89,SSE,163,3.0,7.0,96,0.00,,,0.00,weatherlink.com 1.10,2013-09-02 10:31:00,
2013-09-02 03:46:00,60.8,60.0,29.89,South,186,4.0,8.0,96,0.00,,,0.00,weatherlink.com 1.10,2013-09-02 10:46:00,
2013-09-02 04:01:00,60.9,60.0,29.89,SSE,150,6.0,8.0,97,0.00,,,0.00,weatherlink.com 1.10,2013-09-02 11:01:00,
2013-09-02 04:16:00,60.9,60.0,29.89,South,187,2.0,6.0,97,0.00,,,0.00,weatherlink.com 1.10,2013-09-02 11:16:00,
2013-09-02 04:31:00,61.1,60.0,29.89,SSE,162,2.0,6.0,97,0.00,,,0.00,weatherlink.com 1.10,2013-09-02 11:31:00,
2013-09-02 04:46:00,61.1,60.0,29.89,SSE,152,3.0,10.0,97,0.00,,,0.00,weatherlink.com 1.10,2013-09-02 11:46:00,
2013-09-02 05:01:00,61.1,60.0,29.89,SSE,160,3.0,6.0,97,0.00,,,0.00,weatherlink.com 1.10,2013-09-02 12:01:00,
2013-09-02 05:16:00,61.0,60.0,29.89,SSE,148,4.0,8.0,97,0.00,,,0.00,weatherlink.com 1.10,2013-09-02 12:16:00,
2013-09-02 05:31:00,61.2,60.0,29.89,SSE,162,4.0,4.0,97,0.00,,,0.00,weatherlink.com 1.10,2013-09-02 12:31:00,
2013-09-02 05:47:00,61.5,61.0,29.89,SSW,200,3.0,4.0,97,0.00,,,0.00,weatherlink.com 1.10,2013-09-02 12:47:00,
2013-09-02 06:02:00,61.5,61.0,29.90,SSE,150,3.0,6.0,97,0.00,,,0.00,weatherlink.com 1.10,2013-09-02 13:02:00,
2013-09-02 06:17:00,61.6,61.0,29.90,South,180,5.0,6.0,97,0.00,,,0.00,weatherlink.com 1.10,2013-09-02 13:17:00,
2013-09-02 06:32:00,61.8,61.0,29.90,SSE,166,4.0,6.0,97,0.00,,,0.00,weatherlink.com 1.10,2013-09-02 13:32:00,
2013-09-02 06:47:00,62.0,61.0,29.91,SW,224,5.0,9.0,97,0.00,,,0.00,weatherlink.com 1.10,2013-09-02 13:47:00,
2013-09-02 07:02:00,62.0,61.0,29.91,SSW,200,2.0,6.0,97,0.00,,,0.00,weatherlink.com 1.10,2013-09-02 14:02:00,
2013-09-02 07:17:00,62.0,61.0,29.91,SE,146,6.0,6.0,97,0.00,,,0.00,weatherlink.com 1.10,2013-09-02 14:17:00,
2013-09-02 07:32:00,62.0,61.0,29.92,SE,129,4.0,6.0,97,0.00,,,0.00,weatherlink.com 1.10,2013-09-02 14:32:00,
2013-09-02 07:47:00,62.1,61.0,29.92,SE,142,5.0,8.0,97,0.00,,,0.00,weatherlink.com 1.10,2013-09-02 14:47:00,
2013-09-02 08:02:00,62.1,61.0,29.92,SSE,153,5.0,6.0,97,0.00,,,0.00,weatherlink.com 1.10,2013-09-02 15:02:00,
2013-09-02 08:17:00,62.2,61.0,29.93,SSE,159,3.0,7.0,97,0.00,,,0.00,weatherlink.com 1.10,2013-09-02 15:17:00,
2013-09-02 08:32:00,62.6,62.0,29.93,WSW,242,4.0,7.0,97,0.00,,,0.00,weatherlink.com 1.10,2013-09-02 15:32:00,
2013-09-02 08:47:00,62.9,62.0,29.93,South,176,6.0,8.0,96,0.00,,,0.00,weatherlink.com 1.10,2013-09-02 15:47:00,
2013-09-02 09:02:00,63.3,62.0,29.93,SSW,207,4.0,5.0,96,0.00,,,0.00,weatherlink.com 1.10,2013-09-02 16:02:00,
2013-09-02 09:17:00,63.4,62.0,29.93,SSE,155,5.0,9.0,96,0.00,,,0.00,weatherlink.com 1.10,2013-09-02 16:17:00,
2013-09-02 09:32:00,63.6,62.0,29.93,SW,219,4.0,8.0,95,0.00,,,0.00,weatherlink.com 1.10,2013-09-02 16:32:00,
2013-09-02 09:47:00,64.5,63.0,29.94,SSW,195,5.0,10.0,94,0.00,,,0.00,weatherlink.com 1.10,2013-09-02 16:47:00,
2013-09-02 10:02:00,65.5,63.0,29.93,SW,225,9.0,9.0,92,0.00,,,0.00,weatherlink.com 1.10,2013-09-02 17:02:00,
2013-09-02 10:17:00,65.8,63.0,29.94,SSE,153,5.0,11.0,90,0.00,,,0.00,weatherlink.com 1.10,2013-09-02 17:17:00,
2013-09-02 10:32:00,65.6,62.0,29.94,WSW,249,8.0,9.0,89,0.00,,,0.00,weatherlink.com 1.10,2013-09-02 17:32:00,
2013-09-02 10:47:00,66.1,63.0,29.93,SE,145,5.0,10.0,89,0.00,,,0.00,weatherlink.com 1.10,2013-09-02 17:47:00,
2013-09-02 11:02:00,66.9,63.0,29.93,SSW,197,4.0,10.0,86,0.00,,,0.00,weatherlink.com 1.10,2013-09-02 18:02:00,
2013-09-02 11:17:00,68.0,63.0,29.94,SE,140,7.0,10.0,85,0.00,,,0.00,weatherlink.com 1.10,2013-09-02 18:17:00,
2013-09-02 11:32:00,68.9,63.0,29.94,SSW,203,7.0,14.0,82,0.00,,,0.00,weatherlink.com 1.10,2013-09-02 18:32:00,
2013-09-02 11:47:00,68.1,63.0,29.93,SW,226,9.0,12.0,83,0.00,,,0.00,weatherlink.com 1.10,2013-09-02 18:47:00,
2013-09-02 12:02:00,69.3,63.0,29.93,SE,145,11.0,15.0,81,0.00,,,0.00,weatherlink.com 1.10,2013-09-02 19:02:00,
2013-09-02 12:17:00,69.7,64.0,29.93,South,191,6.0,12.0,81,0.00,,,0.00,weatherlink.com 1.10,2013-09-02 19:17:00,
2013-09-02 12:32:00,69.9,64.0,29.93,SE,142,8.0,13.0,81,0.00,,,0.00,weatherlink.com 1.10,2013-09-02 19:32:00,
2013-09-02 12:47:00,70.9,64.0,29.92,SW,235,6.0,13.0,78,0.00,,,0.00,weatherlink.com 1.10,2013-09-02 19:47:00,
2013-09-02 13:02:00,71.1,64.0,29.92,South,180,3.0,13.0,78,0.00,,,0.00,weatherlink.com 1.10,2013-09-02 20:02:00,
2013-09-02 13:17:00,71.1,64.0,29.92,SSW,205,4.0,13.0,77,0.00,,,0.00,weatherlink.com 1.10,2013-09-02 20:17:00,
2013-09-02 13:32:00,71.1,64.0,29.91,SSW,211,8.0,14.0,77,0.00,,,0.00,weatherlink.com 1.10,2013-09-02 20:32:00,
2013-09-02 13:47:00,71.1,64.0,29.91,SE,125,9.0,14.0,78,0.00,,,0.00,weatherlink.com 1.10,2013-09-02 20:47:00,
2013-09-02 14:02:00,70.7,64.0,29.91,SE,138,6.0,14.0,79,0.00,,,0.00,weatherlink.com 1.10,2013-09-02 21:02:00,
2013-09-02 14:17:00,71.3,64.0,29.91,SSE,162,6.0,13.0,78,0.00,,,0.00,weatherlink.com 1.10,2013-09-02 21:17:00,
2013-09-02 14:32:00,71.5,64.0,29.90,SSE,149,7.0,14.0,78,0.00,,,0.00,weatherlink.com 1.10,2013-09-02 21:32:00,
2013-09-02 14:48:00,72.0,64.0,29.90,South,172,11.0,15.0,76,0.00,,,0.00,weatherlink.com 1.10,2013-09-02 21:48:00,
2013-09-02 15:03:00,72.9,65.0,29.89,SSW,203,11.0,14.0,75,0.00,,,0.00,weatherlink.com 1.10,2013-09-02 22:03:00,
2013-09-02 15:18:00,71.7,64.0,29.89,South,184,7.0,15.0,76,0.00,,,0.00,weatherlink.com 1.10,2013-09-02 22:18:00,
2013-09-02 15:33:00,70.7,64.0,29.89,SE,136,6.0,12.0,78,0.00,,,0.00,weatherlink.com 1.10,2013-09-02 22:33:00,
2013-09-02 15:48:00,70.1,63.0,29.88,SSE,166,8.0,13.0,79,0.00,,,0.00,weatherlink.com 1.10,2013-09-02 22:48:00,
2013-09-02 16:03:00,70.0,64.0,29.88,SSE,157,8.0,12.0,80,0.00,,,0.00,weatherlink.com 1.10,2013-09-02 23:03:00,
2013-09-02 16:18:00,69.4,64.0,29.88,SSW,205,8.0,11.0,82,0.00,,,0.00,weatherlink.com 1.10,2013-09-02 23:18:00,
2013-09-02 16:33:00,69.6,64.0,29.87,SSE,153,7.0,10.0,81,0.00,,,0.00,weatherlink.com 1.10,2013-09-02 23:33:00,
2013-09-02 16:48:00,69.3,64.0,29.87,SE,146,5.0,12.0,82,0.00,,,0.00,weatherlink.com 1.10,2013-09-02 23:48:00,
2013-09-02 17:03:00,68.6,63.0,29.87,SE,142,9.0,12.0,83,0.00,,,0.00,weatherlink.com 1.10,2013-09-03 00:03:00,
2013-09-02 17:18:00,68.5,64.0,29.87,SE,124,5.0,10.0,84,0.00,,,0.00,weatherlink.com 1.10,2013-09-03 00:18:00,
2013-09-02 17:33:00,69.2,64.0,29.87,SSE,152,5.0,10.0,82,0.00,,,0.00,weatherlink.com 1.10,2013-09-03 00:33:00,
2013-09-02 17:48:00,69.1,64.0,29.86,SE,145,7.0,10.0,83,0.00,,,0.00,weatherlink.com 1.10,2013-09-03 00:48:00,
2013-09-02 18:03:00,69.1,64.0,29.86,South,173,4.0,9.0,83,0.00,,,0.00,weatherlink.com 1.10,2013-09-03 01:03:00,
2013-09-02 18:18:00,69.0,64.0,29.86,SE,129,4.0,10.0,83,0.00,,,0.00,weatherlink.com 1.10,2013-09-03 01:18:00,
2013-09-02 18:33:00,69.0,64.0,29.86,SSE,159,7.0,13.0,83,0.00,,,0.00,weatherlink.com 1.10,2013-09-03 01:33:00,
2013-09-02 18:48:00,69.6,64.0,29.86,SSE,149,6.0,8.0,82,0.00,,,0.00,weatherlink.com 1.10,2013-09-03 01:48:00,
2013-09-02 19:03:00,69.8,64.0,29.86,SSW,195,4.0,10.0,81,0.00,,,0.00,weatherlink.com 1.10,2013-09-03 02:03:00,
2013-09-02 19:18:00,70.0,64.0,29.86,South,189,4.0,8.0,80,0.00,,,0.00,weatherlink.com 1.10,2013-09-03 02:18:00,
2013-09-02 19:33:00,69.2,63.0,29.86,SSW,193,2.0,11.0,81,0.00,,,0.00,weatherlink.com 1.10,2013-09-03 02:33:00,
2013-09-02 19:48:00,68.1,63.0,29.87,SSW,192,2.0,8.0,83,0.00,,,0.00,weatherlink.com 1.10,2013-09-03 02:48:00,
2013-09-02 20:03:00,68.0,63.0,29.87,SSW,207,1.0,6.0,83,0.00,,,0.00,weatherlink.com 1.10,2013-09-03 03:03:00,
2013-09-02 20:18:00,67.7,62.0,29.88,West,269,3.0,7.0,82,0.00,,,0.00,weatherlink.com 1.10,2013-09-03 03:18:00,
2013-09-02 20:33:00,67.3,62.0,29.88,WSW,255,1.0,6.0,82,0.00,,,0.00,weatherlink.com 1.10,2013-09-03 03:33:00,
2013-09-02 20:48:00,66.7,61.0,29.89,SW,224,0.0,5.0,83,0.00,,,0.00,weatherlink.com 1.10,2013-09-03 03:48:00,
2013-09-02 21:03:00,66.2,61.0,29.89,WSW,239,0.0,5.0,84,0.00,,,0.00,weatherlink.com 1.10,2013-09-03 04:03:00,
2013-09-02 21:18:00,65.8,61.0,29.90,NW,316,0.0,3.0,83,0.00,,,0.00,weatherlink.com 1.10,2013-09-03 04:18:00,
2013-09-02 21:33:00,65.5,60.0,29.90,NW,309,0.0,3.0,83,0.00,,,0.00,weatherlink.com 1.10,2013-09-03 04:33:00,
2013-09-02 21:48:00,65.1,60.0,29.90,WSW,238,3.0,3.0,83,0.00,,,0.00,weatherlink.com 1.10,2013-09-03 04:48:00,
2013-09-02 22:03:00,64.6,61.0,29.90,South,180,1.0,3.0,87,0.00,,,0.00,weatherlink.com 1.10,2013-09-03 05:03:00,
2013-09-02 22:18:00,63.9,61.0,29.90,SSE,160,1.0,2.0,89,0.00,,,0.00,weatherlink.com 1.10,2013-09-03 05:18:00,
2013-09-02 22:33:00,63.5,60.0,29.90,SW,215,3.0,4.0,89,0.00,,,0.00,weatherlink.com 1.10,2013-09-03 05:33:00,
2013-09-02 22:48:00,63.2,60.0,29.91,SSE,147,2.0,6.0,90,0.00,,,0.00,weatherlink.com 1.10,2013-09-03 05:48:00,
2013-09-02 23:03:00,62.6,60.0,29.90,SE,142,1.0,6.0,91,0.00,,,0.00,weatherlink.com 1.10,2013-09-03 06:03:00,
2013-09-02 23:18:00,62.2,60.0,29.91,SSE,165,1.0,6.0,92,0.00,,,0.00,weatherlink.com 1.10,2013-09-03 06:18:00,
2013-09-02 23:33:00,61.9,59.0,29.91,ESE,115,2.0,6.0,91,0.00,,,0.00,weatherlink.com 1.10,2013-09-03 06:33:00,
2013-09-02 23:48:00,62.2,59.0,29.91,WSW,239,5.0,5.0,89,0.00,,,0.00,weatherlink.com 1.10,2013-09-03 06:48:00,